Time;durP1;ratioP1;P1;durP2;ratioP2;P2;SDS_P1;SDS_P2;PMS_P1;PMS_P2;Temp;Humidity;BMP_temperature;BMP_pressure;BME280_temperature;BME280_humidity;BME280_pressure;Samples;Min_cycle;Max_cycle;Signal;HPM_P1;HPM_P2
2021/06/09 00:00:27;;;;;;;;;;;;;;;25.83;40.86;100510.16;4998837;28;911;-30
2021/06/09 00:02:52;;;;;;;;;;;;;;;25.81;41.08;100510.31;4989361;28;1968;-30
2021/06/09 00:05:17;;;;;;;;;;;;;;;25.86;40.98;100507.94;4997742;28;741;-29
2021/06/09 00:07:43;;;;;;;;;;;;;;;25.85;40.83;100497.34;4998630;28;745;-30
2021/06/09 00:10:08;;;;;;;;;;;;;;;25.94;41.14;100498.97;4998392;28;741;-28
2021/06/09 00:12:33;;;;;;;;;;;;;;;26.02;40.79;100493.50;4980515;28;1432;-30
2021/06/09 00:14:59;;;;;;;;;;;;;;;25.89;40.82;100495.97;4998347;28;1189;-31
2021/06/09 00:17:25;;;;;;;;;;;;;;;25.90;41.04;100492.25;4997815;28;977;-30
2021/06/09 00:19:50;;;;;;;;;;;;;;;25.94;40.89;100488.19;4997863;28;856;-29
2021/06/09 00:22:15;;;;;;;;;;;;;;;25.93;40.94;100486.50;4998322;28;788;-30
2021/06/09 00:24:40;;;;;;;;;;;;;;;25.96;40.82;100488.81;4998106;28;1910;-29
2021/06/09 00:27:06;;;;;;;;;;;;;;;25.98;40.62;100489.50;4998036;28;856;-31
2021/06/09 00:29:31;;;;;;;;;;;;;;;26.06;40.72;100490.44;4997777;28;848;-30
2021/06/09 00:31:56;;;;;;;;;;;;;;;26.06;40.86;100490.44;4997793;28;1005;-29
2021/06/09 00:34:22;;;;;;;;;;;;;;;26.01;40.94;100491.81;4997466;28;941;-27
2021/06/09 00:36:47;;;;;;;;;;;;;;;26.10;40.69;100494.44;4979946;28;833;-31
2021/06/09 00:39:12;;;;;;;;;;;;;;;26.14;40.37;100495.75;4997813;28;753;-30
2021/06/09 00:41:37;;;;;;;;;;;;;;;26.07;40.50;100492.09;4997587;28;788;-28
2021/06/09 00:44:03;;;;;;;;;;;;;;;26.03;40.48;100486.25;4997264;28;1906;-29
2021/06/09 00:46:33;;;;;;;;;;;;;;;25.99;40.59;100491.16;4997835;28;761;-29
2021/06/09 00:48:58;;;;;;;;;;;;;;;26.08;40.67;100486.53;4996909;28;1437;-29
2021/06/09 00:51:23;;;;;;;;;;;;;;;26.09;40.50;100493.59;4997919;28;800;-30
2021/06/09 00:56:14;;;;;;;;;;;;;;;26.12;40.37;100493.25;4997484;28;626;-28
2021/06/09 00:58:40;;;;;;;;;;;;;;;26.24;40.27;100490.09;4997377;28;820;-29
2021/06/09 01:01:05;;;;;;;;;;;;;;;26.17;40.53;100493.50;4997729;28;757;-30
2021/06/09 01:03:31;;;;;;;;;;;;;;;26.17;40.21;100498.91;5006054;28;1913;-30
2021/06/09 01:05:56;;;;;;;;;;;;;;;26.20;40.25;100489.63;4997320;28;835;-29
2021/06/09 01:08:22;;;;;;;;;;;;;;;26.07;40.55;100497.50;4997221;28;769;-30
2021/06/09 01:10:50;;;;;;;;;;;;;;;26.13;40.37;100502.16;4963974;28;1270;-28
2021/06/09 01:13:20;;;;;;;;;;;;;;;26.24;40.05;100500.91;4997010;28;1189;-30
2021/06/09 01:15:45;;;;;;;;;;;;;;;26.25;40.01;100499.88;4997447;28;840;-29
2021/06/09 01:18:10;;;;;;;;;;;;;;;26.19;40.26;100501.44;4995963;28;968;-28
2021/06/09 01:20:36;;;;;;;;;;;;;;;26.12;40.32;100506.72;4997069;28;962;-29
2021/06/09 01:23:02;;;;;;;;;;;;;;;26.20;40.49;100496.88;4996900;28;1965;-27
2021/06/09 01:25:27;;;;;;;;;;;;;;;26.23;40.05;100500.03;4997238;28;864;-28
2021/06/09 01:27:52;;;;;;;;;;;;;;;26.24;40.26;100498.19;4997221;28;800;-26
2021/06/09 01:30:18;;;;;;;;;;;;;;;26.26;40.13;100496.97;4997314;28;748;-31
2021/06/09 01:32:43;;;;;;;;;;;;;;;26.27;40.05;100504.06;5002006;28;1016;-30
2021/06/09 01:35:09;;;;;;;;;;;;;;;26.27;40.09;100501.38;5016630;28;848;-29
2021/06/09 01:37:34;;;;;;;;;;;;;;;26.19;40.33;100497.91;5016732;28;800;-30
2021/06/09 01:39:59;;;;;;;;;;;;;;;26.28;40.09;100497.63;5016764;28;868;-31
2021/06/09 01:42:25;;;;;;;;;;;;;;;26.31;40.12;100492.91;5016173;28;867;-28
2021/06/09 01:44:50;;;;;;;;;;;;;;;26.21;39.98;100483.22;5016967;28;1954;-30
2021/06/09 01:47:16;;;;;;;;;;;;;;;25.65;39.59;100377.47;5012880;28;980;-30
2021/06/09 01:49:41;;;;;;;;;;;;;;;26.47;39.65;100497.31;5016230;28;902;-33
2021/06/09 01:52:06;;;;;;;;;;;;;;;26.51;39.32;100504.00;5016717;28;788;-29
2021/06/09 01:54:32;;;;;;;;;;;;;;;26.47;39.65;100500.88;5016790;28;887;-30
2021/06/09 01:56:57;;;;;;;;;;;;;;;26.56;39.08;100504.28;5016288;28;785;-30
2021/06/09 01:59:22;;;;;;;;;;;;;;;26.73;38.82;100502.25;4999166;28;812;-29
2021/06/09 02:01:48;;;;;;;;;;;;;;;26.66;38.60;100495.91;5019281;28;1121;-29
2021/06/09 02:04:14;;;;;;;;;;;;;;;26.70;38.49;100497.25;4998539;28;1898;-31
2021/06/09 02:06:39;;;;;;;;;;;;;;;26.76;38.51;100492.94;4997021;28;738;-29
2021/06/09 02:09:05;;;;;;;;;;;;;;;26.77;38.67;100495.47;4996939;28;848;-33
2021/06/09 02:11:30;;;;;;;;;;;;;;;26.71;38.78;100496.19;4996511;28;817;-27
2021/06/09 02:13:55;;;;;;;;;;;;;;;26.63;38.76;100489.06;4996779;28;1240;-32
2021/06/09 02:16:21;;;;;;;;;;;;;;;26.56;38.76;100498.91;4979263;28;884;-31
2021/06/09 02:18:46;;;;;;;;;;;;;;;26.51;38.73;100502.16;4978192;28;1332;-30
2021/06/09 02:21:12;;;;;;;;;;;;;;;26.66;38.15;100490.53;4979573;28;784;-31
2021/06/09 02:23:37;;;;;;;;;;;;;;;26.64;38.14;100508.78;4996668;28;1918;-31
2021/06/09 02:26:03;;;;;;;;;;;;;;;26.64;38.25;100501.50;4996457;28;800;-31
2021/06/09 02:28:30;;;;;;;;;;;;;;;26.56;38.42;100498.91;4997235;28;797;-27
2021/06/09 02:30:55;;;;;;;;;;;;;;;26.69;38.01;100500.13;5000491;28;710;-30
2021/06/09 02:33:21;;;;;;;;;;;;;;;26.66;38.03;100509.41;4999254;28;961;-30
2021/06/09 02:35:46;;;;;;;;;;;;;;;26.67;38.25;100508.41;5000311;28;786;-30
2021/06/09 02:38:12;;;;;;;;;;;;;;;26.74;37.87;100500.41;5000098;28;804;-31
2021/06/09 02:40:38;;;;;;;;;;;;;;;26.78;37.65;100502.53;5000105;28;801;-31
2021/06/09 02:43:03;;;;;;;;;;;;;;;26.61;38.02;100501.88;5000159;28;1902;-32
2021/06/09 02:45:29;;;;;;;;;;;;;;;26.23;38.45;100501.91;4999814;28;761;-28
2021/06/09 02:47:54;;;;;;;;;;;;;;;25.60;39.20;100501.03;4981407;28;965;-30
2021/06/09 02:50:21;;;;;;;;;;;;;;;25.26;39.53;100500.38;4982611;28;804;-30
2021/06/09 02:52:51;;;;;;;;;;;;;;;25.04;39.87;100500.16;4999738;28;832;-28
2021/06/09 02:55:32;;;;;;;;;;;;;;;24.89;40.55;100508.06;4999689;28;849;-28
2021/06/09 02:58:11;;;;;;;;;;;;;;;23.94;42.41;100494.28;4999711;28;803;-25
2021/06/09 03:00:59;;;;;;;;;;;;;;;23.60;43.87;100504.16;4982097;28;843;-28
2021/06/09 03:03:39;;;;;;;;;;;;;;;24.01;42.77;100502.50;4990515;28;1910;-27
2021/06/09 03:06:06;;;;;;;;;;;;;;;24.23;42.11;100500.16;4999584;28;752;-27
2021/06/09 03:08:37;;;;;;;;;;;;;;;23.92;42.97;100507.84;4982192;28;927;-28
2021/06/09 03:11:10;;;;;;;;;;;;;;;24.02;42.80;100507.72;4982172;28;765;-28
2021/06/09 03:13:51;;;;;;;;;;;;;;;24.01;43.25;100508.72;4999203;28;1618;-28
2021/06/09 03:16:19;;;;;;;;;;;;;;;24.17;42.78;100504.38;4999623;28;883;-27
2021/06/09 03:18:45;;;;;;;;;;;;;;;24.44;41.08;100508.53;4980775;28;965;-29
2021/06/09 03:21:21;;;;;;;;;;;;;;;24.43;41.54;100506.88;4982097;28;1126;-31
2021/06/09 03:23:47;;;;;;;;;;;;;;;24.47;41.80;100507.38;4982012;28;1906;-31
2021/06/09 03:26:12;;;;;;;;;;;;;;;24.34;42.36;100499.81;5003259;28;847;-29
2021/06/09 03:28:56;;;;;;;;;;;;;;;24.36;42.32;100500.50;5019190;28;764;-30
2021/06/09 03:31:25;;;;;;;;;;;;;;;24.22;42.68;100502.03;5018899;28;741;-32
2021/06/09 03:33:52;;;;;;;;;;;;;;;24.24;42.78;100494.63;4983334;28;1008;-27
2021/06/09 03:36:27;;;;;;;;;;;;;;;24.23;42.95;100501.00;4981688;28;888;-28
2021/06/09 03:39:04;;;;;;;;;;;;;;;24.04;42.96;100469.94;4981609;28;785;-24
2021/06/09 03:41:40;;;;;;;;;;;;;;;24.27;43.04;100501.53;4997609;28;879;-28
2021/06/09 03:44:05;;;;;;;;;;;;;;;24.07;43.70;100502.66;4998971;28;1910;-31
2021/06/09 03:46:31;;;;;;;;;;;;;;;24.12;43.67;100501.34;4981603;28;746;-31
2021/06/09 03:48:57;;;;;;;;;;;;;;;24.22;43.76;100502.03;4997980;28;949;-27
2021/06/09 03:51:23;;;;;;;;;;;;;;;24.22;43.88;100504.72;4998867;28;830;-30
2021/06/09 03:53:49;;;;;;;;;;;;;;;24.06;44.28;100495.63;4981262;28;1105;-26
2021/06/09 03:56:14;;;;;;;;;;;;;;;24.30;44.04;100499.34;4981339;28;742;-28
2021/06/09 03:58:39;;;;;;;;;;;;;;;24.61;42.97;100505.00;4981082;28;841;-28
2021/06/09 04:01:06;;;;;;;;;;;;;;;24.76;43.02;100513.16;4998513;28;812;-28
2021/06/09 04:03:31;;;;;;;;;;;;;;;24.22;44.36;100504.72;4989164;28;1973;-31
2021/06/09 04:05:57;;;;;;;;;;;;;;;24.11;45.09;100505.84;4998364;28;856;-31
2021/06/09 04:08:23;;;;;;;;;;;;;;;24.19;44.93;100516.63;4980643;28;975;-35
2021/06/09 04:10:48;;;;;;;;;;;;;;;24.26;44.88;100508.72;4980657;28;821;-32
2021/06/09 04:13:14;;;;;;;;;;;;;;;24.25;45.12;100508.91;4981020;28;986;-32
2021/06/09 04:15:39;;;;;;;;;;;;;;;24.46;44.47;100509.22;4998195;28;781;-31
2021/06/09 04:18:05;;;;;;;;;;;;;;;24.58;44.32;100498.94;5004777;28;962;-29
2021/06/09 04:20:31;;;;;;;;;;;;;;;24.53;44.33;100495.06;5000016;28;856;-32
2021/06/09 04:22:56;;;;;;;;;;;;;;;24.40;44.77;100495.63;5000122;28;1910;-30
2021/06/09 04:25:21;;;;;;;;;;;;;;;24.51;44.42;100497.09;5000069;28;772;-31
2021/06/09 04:27:47;;;;;;;;;;;;;;;24.52;44.35;100493.41;5000097;28;762;-32
2021/06/09 04:30:13;;;;;;;;;;;;;;;24.74;43.89;100491.81;5017719;28;761;-29
2021/06/09 04:32:49;;;;;;;;;;;;;;;24.81;43.70;100495.50;5012384;28;1012;-30
2021/06/09 04:35:14;;;;;;;;;;;;;;;24.90;43.63;100498.16;4997595;28;846;-30
2021/06/09 04:37:39;;;;;;;;;;;;;;;24.84;43.81;100507.75;4997798;28;880;-27
2021/06/09 04:40:05;;;;;;;;;;;;;;;24.92;43.93;100506.94;4997585;28;902;-28
2021/06/09 04:42:30;;;;;;;;;;;;;;;24.82;44.37;100504.44;4997883;28;768;-28
2021/06/09 04:44:56;;;;;;;;;;;;;;;24.85;44.17;100504.06;4980598;28;1910;-28
2021/06/09 04:47:21;;;;;;;;;;;;;;;24.93;44.08;100505.91;4997046;28;1048;-31
2021/06/09 04:49:46;;;;;;;;;;;;;;;24.97;43.88;100501.88;4980136;28;540;-28
2021/06/09 04:52:12;;;;;;;;;;;;;;;25.10;43.85;100503.16;4997570;28;773;-33
2021/06/09 04:54:37;;;;;;;;;;;;;;;25.15;43.87;100492.72;4997507;28;737;-26
2021/06/09 04:57:03;;;;;;;;;;;;;;;25.52;42.24;100503.78;4997519;28;745;-36
2021/06/09 04:59:28;;;;;;;;;;;;;;;25.50;41.50;100505.81;4997565;28;797;-28
2021/06/09 05:01:53;;;;;;;;;;;;;;;25.59;40.68;100504.72;5003638;28;1160;-28
2021/06/09 05:04:19;;;;;;;;;;;;;;;25.63;40.66;100505.25;4998832;28;1953;-30
2021/06/09 05:06:44;;;;;;;;;;;;;;;25.62;40.72;100507.09;4997502;28;840;-31
2021/06/09 05:09:09;;;;;;;;;;;;;;;25.59;40.78;100498.53;4996900;28;534;-28
2021/06/09 05:11:51;;;;;;;;;;;;;;;25.54;40.64;100501.75;4997287;28;765;-30
2021/06/09 05:14:21;;;;;;;;;;;;;;;25.73;40.41;100508.53;4997335;28;1279;-27
2021/06/09 05:16:48;;;;;;;;;;;;;;;25.84;40.11;100512.66;4996873;28;1005;-26
2021/06/09 05:19:13;;;;;;;;;;;;;;;25.89;40.47;100514.84;4997223;28;1012;-31
2021/06/09 05:21:40;;;;;;;;;;;;;;;26.03;40.16;100514.03;4979716;28;968;-29
2021/06/09 05:24:06;;;;;;;;;;;;;;;26.29;39.58;100512.78;4996155;28;1918;-27
2021/06/09 05:26:31;;;;;;;;;;;;;;;26.44;39.07;100509.34;4979791;28;780;-30
2021/06/09 05:28:58;;;;;;;;;;;;;;;26.51;39.09;100510.25;4979520;28;793;-28
2021/06/09 05:31:23;;;;;;;;;;;;;;;26.45;39.36;100508.28;4978746;28;924;-25
2021/06/09 05:33:49;;;;;;;;;;;;;;;26.39;39.44;100504.47;4978394;28;1017;-25
2021/06/09 05:36:14;;;;;;;;;;;;;;;26.51;39.27;100512.94;4996940;28;784;-28
2021/06/09 05:38:39;;;;;;;;;;;;;;;26.02;37.74;100501.59;4996404;28;761;-28
2021/06/09 05:41:05;;;;;;;;;;;;;;;26.12;38.47;100508.56;4979152;28;1023;-26
2021/06/09 05:43:30;;;;;;;;;;;;;;;26.34;38.89;100500.66;4979136;28;1911;-28
2021/06/09 05:45:56;;;;;;;;;;;;;;;26.36;39.06;100512.09;4996162;28;824;-26
2021/06/09 05:48:21;;;;;;;;;;;;;;;26.39;39.15;100504.47;4996348;28;969;-28
2021/06/09 05:50:53;;;;;;;;;;;;;;;26.50;39.09;100513.13;4996931;28;820;-28
2021/06/09 05:53:18;;;;;;;;;;;;;;;26.47;39.04;100502.72;4996665;28;717;-28
2021/06/09 05:55:45;;;;;;;;;;;;;;;26.39;39.44;100507.16;4979327;28;1591;-27
2021/06/09 05:58:11;;;;;;;;;;;;;;;26.43;39.38;100506.78;4996693;28;886;-26
2021/06/09 06:00:36;;;;;;;;;;;;;;;26.44;39.33;100508.47;4996397;28;757;-26
2021/06/09 06:03:02;;;;;;;;;;;;;;;26.50;39.53;100505.88;5005098;28;1913;-29
2021/06/09 06:05:27;;;;;;;;;;;;;;;26.53;39.62;100504.66;5000434;28;765;-29
2021/06/09 06:07:53;;;;;;;;;;;;;;;26.48;39.64;100501.69;5000103;28;836;-26
2021/06/09 06:10:19;;;;;;;;;;;;;;;26.55;39.55;100507.19;5000603;28;777;-26
2021/06/09 06:12:44;;;;;;;;;;;;;;;26.69;39.19;100511.75;4982946;28;950;-26
2021/06/09 06:15:10;;;;;;;;;;;;;;;26.84;39.26;100509.03;5002180;28;1424;-28
2021/06/09 06:17:41;;;;;;;;;;;;;;;26.82;39.22;100505.72;5010573;28;1126;-30
2021/06/09 06:20:16;;;;;;;;;;;;;;;26.82;39.35;100505.72;5000357;28;825;-28
2021/06/09 06:22:42;;;;;;;;;;;;;;;26.90;38.92;100508.31;4999939;28;765;-30
2021/06/09 06:25:07;;;;;;;;;;;;;;;26.84;39.21;100506.34;4982297;28;1969;-31
2021/06/09 06:27:33;;;;;;;;;;;;;;;26.95;38.95;100496.09;5000203;28;753;-28
2021/06/09 06:29:59;;;;;;;;;;;;;;;26.89;39.31;100501.22;4999827;28;822;-29
2021/06/09 06:32:24;;;;;;;;;;;;;;;27.09;38.90;100494.44;4997994;28;1121;-28
2021/06/09 06:34:50;;;;;;;;;;;;;;;27.13;39.01;100495.72;4999850;28;843;-28
2021/06/09 06:37:16;;;;;;;;;;;;;;;26.96;39.28;100489.69;5007158;28;1062;-29
2021/06/09 06:39:41;;;;;;;;;;;;;;;27.16;38.83;100486.44;5019765;28;817;-28
2021/06/09 06:42:07;;;;;;;;;;;;;;;27.03;39.13;100485.22;5019342;28;762;-30
2021/06/09 06:44:33;;;;;;;;;;;;;;;26.73;39.24;100488.75;5001075;28;1902;-26
2021/06/09 06:46:59;;;;;;;;;;;;;;;26.64;39.91;100481.81;5019096;28;969;-29
2021/06/09 06:49:25;;;;;;;;;;;;;;;27.03;38.88;100487.91;5000546;28;973;-28
2021/06/09 06:51:50;;;;;;;;;;;;;;;27.09;38.93;100489.03;4982447;28;871;-30
2021/06/09 06:54:16;;;;;;;;;;;;;;;26.99;39.02;100489.31;4999518;28;760;-29
2021/06/09 06:56:41;;;;;;;;;;;;;;;26.82;39.58;100485.97;4982142;28;765;-31
2021/06/09 06:59:06;;;;;;;;;;;;;;;27.05;38.83;100477.78;4982127;28;788;-30
2021/06/09 07:01:33;;;;;;;;;;;;;;;27.14;38.76;100479.34;4984204;28;1102;-29
2021/06/09 07:03:58;;;;;;;;;;;;;;;27.21;38.52;100484.81;5004506;28;1898;-31
2021/06/09 07:06:24;;;;;;;;;;;;;;;27.33;38.56;100485.16;4981748;28;812;-28
2021/06/09 07:08:49;;;;;;;;;;;;;;;27.38;38.30;100492.69;4999197;28;1195;-30
2021/06/09 07:11:15;;;;;;;;;;;;;;;27.34;38.75;100497.63;5000247;28;905;-29
2021/06/09 07:13:40;;;;;;;;;;;;;;;27.39;38.55;100492.47;5018655;28;1091;-29
2021/06/09 07:16:06;;;;;;;;;;;;;;;27.41;38.60;100491.47;4999877;28;897;-28
2021/06/09 07:18:31;;;;;;;;;;;;;;;27.39;38.36;100487.09;5018167;28;964;-26
2021/06/09 07:20:57;;;;;;;;;;;;;;;27.50;38.56;100487.63;5018683;28;784;-30
2021/06/09 07:23:22;;;;;;;;;;;;;;;27.48;38.49;100495.91;5018166;28;1906;-28
2021/06/09 07:25:49;;;;;;;;;;;;;;;27.52;38.28;100501.78;5000530;28;891;-28
2021/06/09 07:28:14;;;;;;;;;;;;;;;27.46;38.74;100497.16;5001707;28;747;-30
2021/06/09 07:30:40;;;;;;;;;;;;;;;27.63;37.91;100495.00;5018099;28;800;-32
2021/06/09 07:33:05;;;;;;;;;;;;;;;27.58;38.30;100498.28;5000692;28;957;-30
2021/06/09 07:35:31;;;;;;;;;;;;;;;27.57;38.41;100496.63;5018067;28;849;-28
2021/06/09 07:38:01;;;;;;;;;;;;;;;27.66;38.25;100496.50;5017887;28;773;-29
2021/06/09 07:40:28;;;;;;;;;;;;;;;27.67;38.08;100488.22;5018125;28;809;-33
2021/06/09 07:43:05;;;;;;;;;;;;;;;27.71;37.75;100492.22;5018032;28;851;-27
2021/06/09 07:45:30;;;;;;;;;;;;;;;27.74;37.94;100481.00;4999925;28;839;-29
2021/06/09 07:47:56;;;;;;;;;;;;;;;27.50;37.17;100495.72;4999242;28;949;-27
2021/06/09 07:50:31;;;;;;;;;;;;;;;26.88;36.54;100490.59;5000446;28;820;-28
2021/06/09 07:52:58;;;;;;;;;;;;;;;26.71;37.37;100490.00;5000156;28;837;-29
2021/06/09 07:55:23;;;;;;;;;;;;;;;26.88;37.67;100482.50;5018122;28;844;-28
2021/06/09 07:57:49;;;;;;;;;;;;;;;27.33;37.03;100490.56;5017538;28;786;-28
2021/06/09 08:00:15;;;;;;;;;;;;;;;27.54;36.73;100493.47;5000370;28;816;-30
2021/06/09 08:02:40;;;;;;;;;;;;;;;27.59;36.65;100489.16;5020737;28;1112;-29
2021/06/09 08:05:06;;;;;;;;;;;;;;;27.68;36.75;100489.03;5018056;28;1902;-28
2021/06/09 08:07:31;;;;;;;;;;;;;;;27.67;36.65;100487.34;5017828;28;706;-30
2021/06/09 08:09:57;;;;;;;;;;;;;;;27.67;36.92;100495.47;5018240;28;860;-29
2021/06/09 08:12:22;;;;;;;;;;;;;;;27.74;36.66;100494.53;5017767;28;764;-31
2021/06/09 08:14:47;;;;;;;;;;;;;;;27.70;37.10;100493.25;5017421;28;1158;-29
2021/06/09 08:17:13;;;;;;;;;;;;;;;27.78;36.63;100486.06;5013011;28;968;-29
2021/06/09 08:19:38;;;;;;;;;;;;;;;27.84;36.79;100496.09;4997946;28;816;-31
2021/06/09 08:22:03;;;;;;;;;;;;;;;27.78;37.02;100494.16;4997801;28;801;-27
2021/06/09 08:24:29;;;;;;;;;;;;;;;27.81;36.64;100491.88;4997850;28;1911;-29
2021/06/09 08:27:02;;;;;;;;;;;;;;;27.81;36.70;100494.59;4997558;28;788;-27
2021/06/09 08:29:27;;;;;;;;;;;;;;;27.16;37.24;100498.03;4981155;28;853;-30
2021/06/09 08:31:52;;;;;;;;;;;;;;;26.93;37.73;100485.47;4997527;28;946;-29
2021/06/09 08:34:18;;;;;;;;;;;;;;;27.23;36.76;100490.03;4997545;28;946;-29
2021/06/09 08:36:44;;;;;;;;;;;;;;;27.05;36.81;100495.84;4997623;28;772;-29
2021/06/09 08:39:09;;;;;;;;;;;;;;;26.92;36.84;100491.94;5015032;28;1188;-29
2021/06/09 08:41:35;;;;;;;;;;;;;;;26.83;36.75;100485.78;5037364;28;879;-29
2021/06/09 08:44:00;;;;;;;;;;;;;;;26.84;36.69;100492.84;5036648;28;1910;-27
2021/06/09 08:46:26;;;;;;;;;;;;;;;26.75;37.18;100488.56;5036994;28;768;-26
2021/06/09 08:48:51;;;;;;;;;;;;;;;26.75;36.87;100494.81;5004865;28;956;-29
2021/06/09 08:51:17;;;;;;;;;;;;;;;26.74;36.74;100495.00;4979939;28;760;-30
2021/06/09 08:53:44;;;;;;;;;;;;;;;26.72;36.70;100492.50;4997290;28;820;-28
2021/06/09 08:56:10;;;;;;;;;;;;;;;26.67;36.85;100492.22;4997418;28;793;-29
2021/06/09 08:58:35;;;;;;;;;;;;;;;26.68;37.02;100491.19;4997064;28;777;-30
2021/06/09 09:01:01;;;;;;;;;;;;;;;26.68;36.88;100483.09;4996875;28;760;-29
2021/06/09 09:03:26;;;;;;;;;;;;;;;26.07;37.35;100489.41;5005651;28;1963;-30
2021/06/09 09:05:51;;;;;;;;;;;;;;;26.48;37.07;100489.03;4997027;28;796;-27
2021/06/09 09:08:16;;;;;;;;;;;;;;;26.70;36.81;100485.59;4996922;28;792;-29
2021/06/09 09:10:42;;;;;;;;;;;;;;;26.69;36.63;100483.94;4997255;28;982;-30
2021/06/09 09:13:07;;;;;;;;;;;;;;;26.67;36.74;100480.56;4997230;28;745;-30
2021/06/09 09:15:32;;;;;;;;;;;;;;;27.06;36.42;100492.13;4996871;28;1121;-29
2021/06/09 09:17:59;;;;;;;;;;;;;;;27.06;36.90;100486.72;4996205;28;890;-27
2021/06/09 09:20:24;;;;;;;;;;;;;;;27.05;37.01;100476.94;4996924;28;1523;-26
2021/06/09 09:22:52;;;;;;;;;;;;;;;26.98;37.71;100474.13;4996659;28;722;-28
2021/06/09 09:25:17;;;;;;;;;;;;;;;27.20;36.87;100487.69;4996660;28;1977;-28
2021/06/09 09:28:12;;;;;;;;;;;;;;;27.33;36.85;100482.44;4997022;28;729;-29
2021/06/09 09:30:38;;;;;;;;;;;;;;;27.54;36.85;100483.50;4983927;28;1227;-27
2021/06/09 09:33:05;;;;;;;;;;;;;;;27.42;37.52;100485.03;4996526;28;969;-30
2021/06/09 09:35:35;;;;;;;;;;;;;;;27.50;37.20;100483.06;4996566;28;863;-28
2021/06/09 09:38:20;;;;;;;;;;;;;;;27.68;37.06;100475.50;4996409;28;725;-27
2021/06/09 09:41:18;;;;;;;;;;;;;;;27.65;37.35;100460.53;5001124;28;831;-30
2021/06/09 09:43:43;;;;;;;;;;;;;;;27.66;37.55;100485.69;4968031;28;1979;-28
2021/06/09 09:46:09;;;;;;;;;;;;;;;27.71;37.39;100473.28;5000918;28;752;-29
2021/06/09 09:48:37;;;;;;;;;;;;;;;27.75;37.33;100474.59;5000226;28;950;-30
2021/06/09 09:51:03;;;;;;;;;;;;;;;27.77;37.41;100463.59;5000723;28;813;-26
2021/06/09 09:53:30;;;;;;;;;;;;;;;27.80;37.35;100465.91;5001011;28;741;-28
2021/06/09 09:56:01;;;;;;;;;;;;;;;27.65;37.83;100460.53;5000760;28;832;-27
2021/06/09 09:58:28;;;;;;;;;;;;;;;27.76;37.54;100470.00;5000142;28;812;-29
2021/06/09 10:01:09;;;;;;;;;;;;;;;27.79;37.79;100471.50;5000693;28;772;-30
2021/06/09 10:03:38;;;;;;;;;;;;;;;27.47;38.39;100464.53;5008902;28;1965;-31
2021/06/09 10:06:16;;;;;;;;;;;;;;;27.20;38.62;100468.81;5000130;28;741;-32
2021/06/09 10:08:41;;;;;;;;;;;;;;;27.17;38.57;100464.63;5000095;28;821;-31
2021/06/09 10:11:10;;;;;;;;;;;;;;;27.20;38.75;100469.66;5000375;28;753;-30
2021/06/09 10:13:36;;;;;;;;;;;;;;;27.32;38.33;100461.03;4999934;28;1179;-29
2021/06/09 10:16:01;;;;;;;;;;;;;;;27.24;38.35;100454.72;5000288;28;892;-32
2021/06/09 10:18:28;;;;;;;;;;;;;;;27.21;38.58;100459.69;4999578;28;965;-27
2021/06/09 10:20:53;;;;;;;;;;;;;;;27.17;39.24;100445.72;5000033;28;765;-32
2021/06/09 10:23:34;;;;;;;;;;;;;;;27.27;39.01;100456.22;4999819;28;1910;-30
2021/06/09 10:26:03;;;;;;;;;;;;;;;27.21;39.08;100447.00;4999576;28;979;-32
2021/06/09 10:28:28;;;;;;;;;;;;;;;27.20;38.90;100437.25;4999849;28;844;-31
2021/06/09 10:30:57;;;;;;;;;;;;;;;27.31;38.88;100440.47;4982301;28;1315;-31
2021/06/09 10:33:22;;;;;;;;;;;;;;;27.21;39.00;100447.00;4982404;28;950;-31
2021/06/09 10:35:47;;;;;;;;;;;;;;;27.23;38.98;100436.84;4999570;28;841;-30
2021/06/09 10:38:12;;;;;;;;;;;;;;;27.28;39.20;100425.47;4999624;28;866;-30
2021/06/09 10:40:38;;;;;;;;;;;;;;;27.28;38.89;100427.34;4981937;28;852;-29
2021/06/09 10:43:05;;;;;;;;;;;;;;;27.15;39.00;100436.97;4999698;28;800;-31
2021/06/09 10:45:30;;;;;;;;;;;;;;;27.25;39.37;100432.09;4999864;28;1965;-29
2021/06/09 10:47:56;;;;;;;;;;;;;;;27.18;39.22;100431.19;4981346;28;961;-31
2021/06/09 10:50:22;;;;;;;;;;;;;;;27.19;39.23;100435.59;4999198;28;792;-31
2021/06/09 10:52:47;;;;;;;;;;;;;;;27.23;39.35;100430.59;4999120;28;840;-29
2021/06/09 10:55:12;;;;;;;;;;;;;;;27.28;38.76;100438.16;4982589;28;749;-29
2021/06/09 10:57:38;;;;;;;;;;;;;;;27.24;38.60;100424.19;4999280;28;807;-30
2021/06/09 11:00:06;;;;;;;;;;;;;;;27.45;37.76;100407.16;4999311;28;875;-30
2021/06/09 11:02:31;;;;;;;;;;;;;;;27.99;35.79;100418.41;4989928;28;1209;-28
2021/06/09 11:05:00;;;;;;;;;;;;;;;27.28;35.38;100411.16;4999200;28;1969;-29
2021/06/09 11:07:32;;;;;;;;;;;;;;;26.86;36.18;100412.53;4999204;28;776;-26
2021/06/09 11:09:58;;;;;;;;;;;;;;;26.71;36.83;100409.03;4999042;28;813;-28
2021/06/09 11:12:24;;;;;;;;;;;;;;;26.53;36.87;100416.50;4999030;28;769;-25
2021/06/09 11:14:49;;;;;;;;;;;;;;;26.57;37.26;100410.72;4999123;28;1073;-30
2021/06/09 11:17:15;;;;;;;;;;;;;;;26.47;37.25;100405.63;4998331;28;976;-30
2021/06/09 11:19:42;;;;;;;;;;;;;;;26.43;36.98;100409.69;4999119;28;726;-27
2021/06/09 11:22:13;;;;;;;;;;;;;;;26.56;37.15;100403.66;4998996;28;785;-29
2021/06/09 11:24:39;;;;;;;;;;;;;;;26.86;37.33;100415.22;4999068;28;1915;-27
2021/06/09 11:27:24;;;;;;;;;;;;;;;26.88;37.34;100412.34;4998637;28;828;-30
2021/06/09 11:29:50;;;;;;;;;;;;;;;27.12;38.01;100416.59;4988619;28;1580;-28
2021/06/09 11:32:16;;;;;;;;;;;;;;;27.19;38.32;100413.13;4998359;28;937;-26
2021/06/09 11:34:58;;;;;;;;;;;;;;;27.26;38.00;100408.63;4998185;28;801;-28
2021/06/09 11:37:23;;;;;;;;;;;;;;;27.15;37.63;100401.88;4998825;28;753;-29
2021/06/09 11:39:58;;;;;;;;;;;;;;;27.19;37.90;100397.78;4998774;28;832;-28
2021/06/09 11:42:23;;;;;;;;;;;;;;;27.20;38.15;100390.50;4998355;28;788;-31
2021/06/09 11:44:49;;;;;;;;;;;;;;;27.33;37.60;100389.78;4998752;28;1902;-28
2021/06/09 11:47:23;;;;;;;;;;;;;;;27.36;37.18;100394.81;4997974;28;1001;-29
2021/06/09 11:49:49;;;;;;;;;;;;;;;27.49;36.96;100397.63;4998031;28;769;-29
2021/06/09 11:52:15;;;;;;;;;;;;;;;27.50;37.33;100393.06;4998252;28;807;-29
2021/06/09 11:54:40;;;;;;;;;;;;;;;27.50;37.21;100393.06;4998285;28;741;-25
2021/06/09 11:57:12;;;;;;;;;;;;;;;27.41;37.71;100392.34;4998214;28;878;-29
2021/06/09 11:59:39;;;;;;;;;;;;;;;27.33;37.91;100387.09;4998473;28;761;-30
2021/06/09 12:02:23;;;;;;;;;;;;;;;27.32;37.73;100385.41;5005427;28;1078;-28
2021/06/09 12:04:52;;;;;;;;;;;;;;;27.33;37.85;100397.88;5017919;28;1972;-30
2021/06/09 12:07:21;;;;;;;;;;;;;;;27.45;37.54;100395.50;5017741;28;836;-28
2021/06/09 12:09:47;;;;;;;;;;;;;;;27.63;37.50;100397.72;5017634;28;753;-26
2021/06/09 12:12:13;;;;;;;;;;;;;;;27.67;37.36;100400.88;5017820;28;759;-29
2021/06/09 12:14:38;;;;;;;;;;;;;;;27.77;37.31;100396.03;5017688;28;1321;-28
2021/06/09 12:17:10;;;;;;;;;;;;;;;27.87;37.23;100395.69;5014246;28;964;-28
2021/06/09 12:19:35;;;;;;;;;;;;;;;27.91;37.03;100388.81;4997788;28;768;-31
2021/06/09 12:22:02;;;;;;;;;;;;;;;27.98;37.01;100392.41;4997926;28;831;-30
2021/06/09 12:24:28;;;;;;;;;;;;;;;27.90;37.22;100397.97;4997776;28;1975;-30
2021/06/09 12:26:55;;;;;;;;;;;;;;;28.19;36.78;100395.25;4997727;28;792;-30
2021/06/09 12:29:25;;;;;;;;;;;;;;;28.30;36.63;100401.97;4998156;28;1448;-30
2021/06/09 12:31:51;;;;;;;;;;;;;;;28.30;36.91;100397.41;4997542;28;993;-31
2021/06/09 12:34:43;;;;;;;;;;;;;;;28.30;36.55;100392.00;4997177;28;1000;-29
2021/06/09 12:37:09;;;;;;;;;;;;;;;28.34;36.78;100387.06;4994641;28;1338;-29
2021/06/09 12:39:35;;;;;;;;;;;;;;;28.35;36.82;100386.00;4997851;28;774;-30
2021/06/09 12:42:00;;;;;;;;;;;;;;;28.33;36.86;100398.88;4997592;28;749;-32
2021/06/09 12:44:28;;;;;;;;;;;;;;;28.38;36.90;100395.59;4997350;28;1910;-31
2021/06/09 12:46:57;;;;;;;;;;;;;;;28.39;36.89;100398.09;4997602;28;946;-28
2021/06/09 12:49:27;;;;;;;;;;;;;;;28.35;37.08;100399.53;4996777;28;957;-30
2021/06/09 12:51:59;;;;;;;;;;;;;;;28.38;36.76;100407.25;4996980;28;789;-28
2021/06/09 12:54:24;;;;;;;;;;;;;;;28.35;37.20;100396.81;4997450;28;819;-28
2021/06/09 12:56:49;;;;;;;;;;;;;;;28.28;37.36;100395.94;4997015;28;880;-29